Hakuseimaru No.11 — JD2069 — position and weather

sailwx.info

Track history (hours):
 
Tides and Currents Weather Stations Pressure Air Temp Water Temp Dewpoint Dewpoint Depression Visibility Wind Speed Wind Dir Waves Ship Positions

Hakuseimaru No.11

Last reported at 2018-Jun-21 19:29 UTC. Time now 2018-Jun-21 19:56 UTC.
Position N 35°23' E 139°40'.

Length 62 m; draft 3.5 m.

Type: Tanker. MMSI: 431501815.

Date/timePositionNaut miles runAvg speedWind from/ knotsBaromVisibWave heightAir tempDewpointWater temp
2018-Jun-21 19:29N 35°23' E 139°40'0 0.1
2018-Jun-21 18:56N 35°23' E 139°40'0 0.0
2018-Jun-21 18:29N 35°23' E 139°40'0 0.0
2018-Jun-21 17:59N 35°23' E 139°40'0 0.0
2018-Jun-21 17:29N 35°23' E 139°40'0 0.0
2018-Jun-21 16:59N 35°23' E 139°40'0 0.0
2018-Jun-21 16:17N 35°23' E 139°40'0 0.0
2018-Jun-21 15:59N 35°23' E 139°40'0 0.0
2018-Jun-21 15:29N 35°23' E 139°40'0 0.0
2018-Jun-21 14:59N 35°23' E 139°40'0 0.0
2018-Jun-21 14:26N 35°23' E 139°40'0 0.0
2018-Jun-21 13:59N 35°23' E 139°40'0 0.0
2018-Jun-21 13:26N 35°23' E 139°40'0 0.1
2018-Jun-21 12:53N 35°23' E 139°40'0 0.1
2018-Jun-21 12:29N 35°23' E 139°40'0 0.0
2018-Jun-21 11:56N 35°23' E 139°40'2 4.9
2018-Jun-21 11:30N 35°25' E 139°39'0 0.3
2018-Jun-21 11:00N 35°25' E 139°39'0 0.0
2018-Jun-21 10:25N 35°25' E 139°39'0 0.0
2018-Jun-21 09:52N 35°25' E 139°39'0 0.0
2018-Jun-21 09:28N 35°25' E 139°39'0 0.0
2018-Jun-21 07:28N 35°25' E 139°39'3 5.5
2018-Jun-21 07:00N 35°24' E 139°42'5 9.2
2018-Jun-21 06:30N 35°29' E 139°42'4 6.8
2018-Jun-21 05:59N 35°31' E 139°45'0 0.0
2018-Jun-21 03:56N 35°31' E 139°45'3 7.0
2018-Jun-21 03:30N 35°29' E 139°42'4 8.8
2018-Jun-21 03:00N 35°25' E 139°42'3 5.2
2018-Jun-21 02:30N 35°25' E 139°39'0 0.0
2018-Jun-21 02:00N 35°25' E 139°39'0 0.0
2018-Jun-21 01:24N 35°25' E 139°39'0 0.0
2018-Jun-21 00:48N 35°25' E 139°39'0 0.0
2018-Jun-21 00:18N 35°25' E 139°39'0 0.0
2018-Jun-20 23:54N 35°25' E 139°39'0 0.0
2018-Jun-20 23:13N 35°25' E 139°39'0 0.8
2018-Jun-20 23:00N 35°25' E 139°39'2 4.1
2018-Jun-20 22:30N 35°23' E 139°40'0 0.0
2018-Jun-20 21:59N 35°23' E 139°40'0 0.0
2018-Jun-20 21:29N 35°23' E 139°40'0 0.0
2018-Jun-20 20:53N 35°23' E 139°40'0 0.0
2018-Jun-20 20:23N 35°23' E 139°40'0 0.0
2018-Jun-20 19:47N 35°23' E 139°40'0 0.0
2018-Jun-20 19:29N 35°23' E 139°40'0 0.0
2018-Jun-20 18:41N 35°23' E 139°40'0 0.0
2018-Jun-20 18:26N 35°23' E 139°40'0 0.0
2018-Jun-20 17:59N 35°23' E 139°40'0 0.0
2018-Jun-20 17:23N 35°23' E 139°40'0 0.0
2018-Jun-20 16:59N 35°23' E 139°40'0 0.0
2018-Jun-20 16:20N 35°23' E 139°40'0 0.1
2018-Jun-20 15:56N 35°23' E 139°40'0 0.0
2018-Jun-20 15:29N 35°23' E 139°40'0 0.0
2018-Jun-20 14:59N 35°23' E 139°40'0 0.0
2018-Jun-20 14:29N 35°23' E 139°40'0 0.0
2018-Jun-20 13:59N 35°23' E 139°40'0 0.0
2018-Jun-20 13:29N 35°23' E 139°40'0 0.0
2018-Jun-20 12:59N 35°23' E 139°40'0 0.0
2018-Jun-20 12:29N 35°23' E 139°40'0 0.0
2018-Jun-20 11:50N 35°23' E 139°40'0 0.1
2018-Jun-20 11:29N 35°23' E 139°40'0 0.1
2018-Jun-20 10:56N 35°23' E 139°40'0 0.0
2018-Jun-20 10:26N 35°23' E 139°40'0 0.0
2018-Jun-20 09:56N 35°23' E 139°40'0 0.0
2018-Jun-20 09:25N 35°23' E 139°40'0 0.1
2018-Jun-20 08:58N 35°23' E 139°40'0 0.0
2018-Jun-20 08:13N 35°23' E 139°40'0 0.0
2018-Jun-20 07:58N 35°23' E 139°40'0 0.0
2018-Jun-20 07:25N 35°23' E 139°40'0 0.0
2018-Jun-20 06:58N 35°23' E 139°40'0 0.1
2018-Jun-20 06:22N 35°23' E 139°40'0 0.0
2018-Jun-20 05:58N 35°23' E 139°40'0 0.0
2018-Jun-20 05:28N 35°23' E 139°40'0 0.1
2018-Jun-20 04:58N 35°23' E 139°40'0 0.1
2018-Jun-20 04:28N 35°23' E 139°40'0 0.0
2018-Jun-20 03:58N 35°23' E 139°40'0 0.0
2018-Jun-20 03:25N 35°23' E 139°40'0 0.0
2018-Jun-20 02:58N 35°23' E 139°40'0 0.0
2018-Jun-20 02:25N 35°23' E 139°40'0 0.1
2018-Jun-20 02:00N 35°23' E 139°40'4 8.8
2018-Jun-20 01:30N 35°27' E 139°43'4 7.2
2018-Jun-20 01:00N 35°30' E 139°45'1 0.4
2018-Jun-19 22:36N 35°31' E 139°45'0 1.8
2018-Jun-19 22:31N 35°31' E 139°45'3 5.0
2018-Jun-19 22:00N 35°29' E 139°43'4 8.0
2018-Jun-19 21:30N 35°25' E 139°43'3 6.1
2018-Jun-19 21:00N 35°23' E 139°40'0 0.0
2018-Jun-19 20:29N 35°23' E 139°40'0 0.1
2018-Jun-19 19:50N 35°23' E 139°40'0 0.0
2018-Jun-19 19:29N 35°23' E 139°40'0 0.0
2018-Jun-19 18:38N 35°23' E 139°40'0 0.1
2018-Jun-19 18:29N 35°23' E 139°40'0 0.1
2018-Jun-19 17:56N 35°23' E 139°40'0 0.0
2018-Jun-19 17:29N 35°23' E 139°40'0 0.0
2018-Jun-19 16:53N 35°23' E 139°40'0 0.0
2018-Jun-19 16:20N 35°23' E 139°40'0 0.0
2018-Jun-19 15:59N 35°23' E 139°40'0 0.0
2018-Jun-19 15:29N 35°23' E 139°40'0 0.1
2018-Jun-19 14:59N 35°23' E 139°40'0 0.1
2018-Jun-19 13:59N 35°23' E 139°40'0 0.0
2018-Jun-19 12:47N 35°23' E 139°40'0 0.2
2018-Jun-19 12:29N 35°23' E 139°40'0 0.1
2018-Jun-19 11:59N 35°23' E 139°40'0 0.0
2018-Jun-19 10:44N 35°23' E 139°40'0 0.0
2018-Jun-19 10:26N 35°23' E 139°40'0 0.1
2018-Jun-19 10:00N 35°23' E 139°40'2 3.7
2018-Jun-19 09:26N 35°25' E 139°39'0 0.0
2018-Jun-19 08:43N 35°25' E 139°39'0 0.0
2018-Jun-19 08:07N 35°25' E 139°39'0 0.0
2018-Jun-19 07:49N 35°25' E 139°39'0 0.0
2018-Jun-19 07:13N 35°25' E 139°39'0 0.0
2018-Jun-19 06:43N 35°25' E 139°39'0 0.0
2018-Jun-19 06:19N 35°25' E 139°39'0 0.0
2018-Jun-19 05:40N 35°25' E 139°39'0 2.9
2018-Jun-19 05:30N 35°24' E 139°39'4 7.2
2018-Jun-19 05:00N 35°26' E 139°43'4 7.7
2018-Jun-19 04:30N 35°30' E 139°44'2 0.4
2018-Jun-18 23:41N 35°31' E 139°46'0 2.8
2018-Jun-18 23:30N 35°31' E 139°46'3 6.0
2018-Jun-18 23:00N 35°29' E 139°43'4 7.4
2018-Jun-18 22:30N 35°26' E 139°43'3 6.6
2018-Jun-18 22:00N 35°23' E 139°40'0 0.0
2018-Jun-18 21:30N 35°23' E 139°40'0 0.0
2018-Jun-18 20:54N 35°23' E 139°40'0 0.0
2018-Jun-18 20:24N 35°23' E 139°40'0 0.0
2018-Jun-18 20:00N 35°23' E 139°40'0 0.0
2018-Jun-18 19:21N 35°23' E 139°40'0 0.0
2018-Jun-18 19:00N 35°23' E 139°40'0 0.0
2018-Jun-18 18:30N 35°23' E 139°40'0 0.0
2018-Jun-18 17:57N 35°23' E 139°40'0 0.0
2018-Jun-18 17:27N 35°23' E 139°40'0 0.0
2018-Jun-18 17:00N 35°23' E 139°40'0 0.0
2018-Jun-18 16:30N 35°23' E 139°40'0 0.0
2018-Jun-18 15:51N 35°23' E 139°40'0 0.0
2018-Jun-18 15:30N 35°23' E 139°40'0 0.0
2018-Jun-18 15:00N 35°23' E 139°40'0 0.0
2018-Jun-18 14:27N 35°23' E 139°40'0 0.0
2018-Jun-18 13:51N 35°23' E 139°40'0 0.0
2018-Jun-18 13:30N 35°23' E 139°40'0 0.0
2018-Jun-18 13:00N 35°23' E 139°40'0 0.0
2018-Jun-18 12:18N 35°23' E 139°40'0 0.0
2018-Jun-18 12:00N 35°23' E 139°40'0 0.0
2018-Jun-18 11:24N 35°23' E 139°40'0 0.0
2018-Jun-18 11:00N 35°23' E 139°40'0 0.0
2018-Jun-18 10:15N 35°23' E 139°40'0 0.0
2018-Jun-18 10:00N 35°23' E 139°40'0 0.0
2018-Jun-18 09:24N 35°23' E 139°40'0 0.0
2018-Jun-18 09:00N 35°23' E 139°40'0 0.1
2018-Jun-18 08:30N 35°23' E 139°40'0 0.0
2018-Jun-18 07:51N 35°23' E 139°40'0 0.1
2018-Jun-18 07:27N 35°23' E 139°40'2 4.5
2018-Jun-18 07:00N 35°24' E 139°39'0 0.5
2018-Jun-18 06:30N 35°25' E 139°39'0 0.0
2018-Jun-18 05:57N 35°25' E 139°39'0 0.0
2018-Jun-18 05:12N 35°25' E 139°39'0 0.0
2018-Jun-18 04:57N 35°25' E 139°39'0 0.0
2018-Jun-18 04:27N 35°25' E 139°39'0 0.0
2018-Jun-18 03:57N 35°25' E 139°39'1 2.4
2018-Jun-18 03:30N 35°24' E 139°40'1 2.3
2018-Jun-18 02:58N 35°23' E 139°40'0 0.0
2018-Jun-18 02:25N 35°23' E 139°40'1 3.1
2018-Jun-18 02:01N 35°24' E 139°41'5 9.5
2018-Jun-18 01:30N 35°28' E 139°42'4 7.5
2018-Jun-18 01:00N 35°31' E 139°45'0 0.0
2018-Jun-17 22:33N 35°31' E 139°45'0 1.5
2018-Jun-17 22:31N 35°31' E 139°45'3 6.2
2018-Jun-17 22:01N 35°29' E 139°42'4 7.7
2018-Jun-17 21:30N 35°25' E 139°43'3 6.8
2018-Jun-17 21:00N 35°23' E 139°40'0 0.0
2018-Jun-17 20:28N 35°23' E 139°40'0 0.0
2018-Jun-17 19:55N 35°23' E 139°40'0 0.0
2018-Jun-17 19:31N 35°23' E 139°40'0 0.0
2018-Jun-17 18:45N 35°23' E 139°40'0 0.2
2018-Jun-17 18:30N 35°23' E 139°40'0 0.1
2018-Jun-17 18:00N 35°23' E 139°40'0 0.0
2018-Jun-17 17:30N 35°23' E 139°40'0 0.0
2018-Jun-17 17:00N 35°23' E 139°40'0 0.0
2018-Jun-17 16:18N 35°23' E 139°40'0 0.0
2018-Jun-17 16:00N 35°23' E 139°40'0 0.0
2018-Jun-17 15:18N 35°23' E 139°40'0 0.0
2018-Jun-17 15:00N 35°23' E 139°40'0 0.0
2018-Jun-17 14:30N 35°23' E 139°40'0 0.0
2018-Jun-17 14:00N 35°23' E 139°40'0 0.0
2018-Jun-17 13:30N 35°23' E 139°40'0 0.0
2018-Jun-17 12:51N 35°23' E 139°40'0 0.0
2018-Jun-17 12:30N 35°23' E 139°40'0 0.0
2018-Jun-17 11:57N 35°23' E 139°40'2 5.0
2018-Jun-17 11:31N 35°25' E 139°39'0 0.1
2018-Jun-17 11:00N 35°25' E 139°39'0 0.0
2018-Jun-17 10:29N 35°25' E 139°39'0 0.0
2018-Jun-17 09:41N 35°25' E 139°39'0 0.0
2018-Jun-17 09:26N 35°25' E 139°39'0 0.0
2018-Jun-17 08:56N 35°25' E 139°39'0 0.0
2018-Jun-17 08:20N 35°25' E 139°39'0 0.0
2018-Jun-17 07:56N 35°25' E 139°39'0 0.0
2018-Jun-17 07:26N 35°25' E 139°39'0 0.0
2018-Jun-17 06:56N 35°25' E 139°39'0 0.0
2018-Jun-17 06:26N 35°25' E 139°39'0 0.0
2018-Jun-17 05:44N 35°25' E 139°39'0 0.0
2018-Jun-17 05:14N 35°25' E 139°39'0 0.0
2018-Jun-17 04:56N 35°25' E 139°39'0 0.6
2018-Jun-17 04:30N 35°25' E 139°39'0 0.2
2018-Jun-17 04:01N 35°25' E 139°39'2 4.3
2018-Jun-17 03:30N 35°23' E 139°40'0 0.0
2018-Jun-17 02:58N 35°23' E 139°40'0 0.0
2018-Jun-17 02:28N 35°23' E 139°40'0 1.0
2018-Jun-17 02:00N 35°23' E 139°41'5 9.6
2018-Jun-17 01:30N 35°28' E 139°42'4 7.7
2018-Jun-17 01:00N 35°31' E 139°45'0 0.0
2018-Jun-16 22:35N 35°31' E 139°45'0 1.4
2018-Jun-16 22:30N 35°31' E 139°45'2 4.7
2018-Jun-16 22:00N 35°29' E 139°43'4 7.2
2018-Jun-16 21:30N 35°26' E 139°43'4 6.9
2018-Jun-16 20:59N 35°23' E 139°40'0 0.1
2018-Jun-16 20:30N 35°23' E 139°40'0 0.0
2018-Jun-16 19:54N 35°23' E 139°40'0 0.0
2018-Jun-16 19:27N 35°23' E 139°40'0 0.0
2018-Jun-16 18:51N 35°23' E 139°40'0 0.0
2018-Jun-16 18:30N 35°23' E 139°40'0 0.1
2018-Jun-16 17:51N 35°23' E 139°40'0 0.0
2018-Jun-16 17:27N 35°23' E 139°40'0 0.1
2018-Jun-16 17:00N 35°23' E 139°40'0 0.0
2018-Jun-16 16:24N 35°23' E 139°40'0 0.0
2018-Jun-16 16:00N 35°23' E 139°40'0 0.0
2018-Jun-16 15:30N 35°23' E 139°40'0 0.0
2018-Jun-16 15:00N 35°23' E 139°40'0 0.0
2018-Jun-16 14:30N 35°23' E 139°40'0 0.0
2018-Jun-16 14:00N 35°23' E 139°40'0 0.0
2018-Jun-16 13:30N 35°23' E 139°40'0 0.0
2018-Jun-16 13:00N 35°23' E 139°40'0 0.0
2018-Jun-16 12:30N 35°23' E 139°40'0 0.1
2018-Jun-16 11:54N 35°23' E 139°40'0 0.0
2018-Jun-16 11:30N 35°23' E 139°40'0 0.0
2018-Jun-16 10:54N 35°23' E 139°40'0 0.0
2018-Jun-16 10:27N 35°23' E 139°40'0 0.0
2018-Jun-16 10:00N 35°23' E 139°40'0 0.0
2018-Jun-16 09:30N 35°23' E 139°40'0 0.0
2018-Jun-16 08:57N 35°23' E 139°40'0 0.0
2018-Jun-16 08:24N 35°23' E 139°40'0 0.1
2018-Jun-16 08:00N 35°23' E 139°40'0 0.1
2018-Jun-16 07:24N 35°23' E 139°40'1 3.1
2018-Jun-16 07:00N 35°24' E 139°39'1 2.0
2018-Jun-16 06:30N 35°25' E 139°39'0 0.0
2018-Jun-16 05:56N 35°25' E 139°39'0 0.0
2018-Jun-16 05:29N 35°25' E 139°39'0 0.0
2018-Jun-16 04:59N 35°25' E 139°39'0 0.0
2018-Jun-16 04:29N 35°25' E 139°39'0 0.0
2018-Jun-16 03:47N 35°25' E 139°39'0 0.0
2018-Jun-16 03:29N 35°25' E 139°39'0 0.0
2018-Jun-16 02:47N 35°25' E 139°39'0 0.0
2018-Jun-16 02:30N 35°25' E 139°39'3 5.2
2018-Jun-16 02:00N 35°24' E 139°42'5 9.3
2018-Jun-16 01:31N 35°29' E 139°42'3 1.0
2018-Jun-15 22:34N 35°31' E 139°45'0 1.3
2018-Jun-15 22:30N 35°31' E 139°45'3 6.3
2018-Jun-15 22:00N 35°29' E 139°42'4 7.6
2018-Jun-15 21:30N 35°25' E 139°43'3 6.4
2018-Jun-15 21:01N 35°23' E 139°40'0 0.1
2018-Jun-15 20:29N 35°23' E 139°40'0 0.1
2018-Jun-15 19:41N 35°23' E 139°40'0 0.0
2018-Jun-15 19:29N 35°23' E 139°40'0 0.0
2018-Jun-15 18:59N 35°23' E 139°40'0 0.0
2018-Jun-15 18:29N 35°23' E 139°40'0 0.0
2018-Jun-15 17:32N 35°23' E 139°40'0 0.0
2018-Jun-15 17:26N 35°23' E 139°40'0 0.0
2018-Jun-15 16:59N 35°23' E 139°40'0 0.0
2018-Jun-15 16:20N 35°23' E 139°40'0 0.0
2018-Jun-15 15:59N 35°23' E 139°40'0 0.0
2018-Jun-15 15:29N 35°23' E 139°40'0 0.0
2018-Jun-15 14:59N 35°23' E 139°40'0 0.0
2018-Jun-15 14:29N 35°23' E 139°40'0 0.0
2018-Jun-15 13:53N 35°23' E 139°40'0 0.0
2018-Jun-15 13:26N 35°23' E 139°40'0 0.0
2018-Jun-15 12:50N 35°23' E 139°40'0 0.0
2018-Jun-15 12:29N 35°23' E 139°40'2 4.7
2018-Jun-15 12:00N 35°25' E 139°39'0 0.0
2018-Jun-15 11:30N 35°25' E 139°39'0 0.0
2018-Jun-15 10:59N 35°25' E 139°39'0 0.0
2018-Jun-15 10:11N 35°25' E 139°39'0 0.0
2018-Jun-15 09:59N 35°25' E 139°39'0 0.0
2018-Jun-15 09:23N 35°25' E 139°39'0 0.0
2018-Jun-15 08:59N 35°25' E 139°39'0 0.0
2018-Jun-15 08:29N 35°25' E 139°39'0 0.0
2018-Jun-15 07:47N 35°25' E 139°39'0 0.1
2018-Jun-15 07:30N 35°25' E 139°39'4 8.0
2018-Jun-15 07:00N 35°21' E 139°41'0 0.4
2018-Jun-15 06:24N 35°21' E 139°41'0 0.0
2018-Jun-15 05:57N 35°21' E 139°41'0 0.0
2018-Jun-15 05:24N 35°21' E 139°41'0 0.0
2018-Jun-15 04:57N 35°21' E 139°41'0 0.0
2018-Jun-15 04:27N 35°21' E 139°41'0 0.0
2018-Jun-15 04:00N 35°21' E 139°41'0 0.0
2018-Jun-15 03:21N 35°21' E 139°41'0 0.0
2018-Jun-15 02:54N 35°21' E 139°41'2 4.9
2018-Jun-15 02:30N 35°23' E 139°41'510.3
2018-Jun-15 02:00N 35°28' E 139°42'4 7.7
2018-Jun-15 01:30N 35°31' E 139°45'0 0.1
2018-Jun-14 22:49N 35°31' E 139°45'1 3.4
2018-Jun-14 22:30N 35°30' E 139°45'3 5.2
2018-Jun-14 22:00N 35°29' E 139°42'4 7.5
2018-Jun-14 21:30N 35°25' E 139°42'3 5.5
2018-Jun-14 21:00N 35°23' E 139°40'0 0.0
2018-Jun-14 20:21N 35°23' E 139°40'0 0.0
2018-Jun-14 20:00N 35°23' E 139°40'0 0.0
2018-Jun-14 19:21N 35°23' E 139°40'0 0.0
2018-Jun-14 18:57N 35°23' E 139°40'0 0.1
2018-Jun-14 18:30N 35°23' E 139°40'0 0.1
2018-Jun-14 18:00N 35°23' E 139°40'0 0.0
2018-Jun-14 17:27N 35°23' E 139°40'0 0.0
2018-Jun-14 16:56N 35°23' E 139°40'0 0.0
2018-Jun-14 16:29N 35°23' E 139°40'0 0.0
2018-Jun-14 15:47N 35°23' E 139°40'0 0.2
2018-Jun-14 15:29N 35°23' E 139°40'0 0.0
2018-Jun-14 14:59N 35°23' E 139°40'0 0.0
2018-Jun-14 14:29N 35°23' E 139°40'0 0.0
2018-Jun-14 13:59N 35°23' E 139°40'0 0.0
2018-Jun-14 13:29N 35°23' E 139°40'0 0.0
2018-Jun-14 12:56N 35°23' E 139°40'0 0.0
2018-Jun-14 12:29N 35°23' E 139°40'0 0.0
2018-Jun-14 11:59N 35°23' E 139°40'0 0.1
2018-Jun-14 11:23N 35°23' E 139°40'0 0.0
2018-Jun-14 10:59N 35°23' E 139°40'0 0.0
2018-Jun-14 10:29N 35°23' E 139°40'0 0.0
2018-Jun-14 09:59N 35°23' E 139°40'1 2.1
2018-Jun-14 09:30N 35°24' E 139°40'1 2.4
2018-Jun-14 09:00N 35°25' E 139°39'0 0.0
2018-Jun-14 08:26N 35°25' E 139°39'0 0.0
2018-Jun-14 07:50N 35°25' E 139°39'0 0.0
2018-Jun-14 07:29N 35°25' E 139°39'0 0.0
2018-Jun-14 06:38N 35°25' E 139°39'0 0.0
2018-Jun-14 06:26N 35°25' E 139°39'0 0.0
2018-Jun-14 05:44N 35°25' E 139°39'0 0.0
2018-Jun-14 05:26N 35°25' E 139°39'0 0.0
2018-Jun-14 04:56N 35°25' E 139°39'0 0.0
2018-Jun-14 04:26N 35°25' E 139°39'0 0.5
2018-Jun-14 04:00N 35°25' E 139°39'3 6.2
2018-Jun-14 03:30N 35°24' E 139°42'1 2.5
2018-Jun-14 03:00N 35°24' E 139°44'0 0.0
2018-Jun-14 02:30N 35°24' E 139°44'2 5.0
2018-Jun-14 02:00N 35°26' E 139°43'3 6.1
2018-Jun-14 01:28N 35°29' E 139°42'0 0.0
2018-Jun-14 00:58N 35°29' E 139°42'0 0.0
2018-Jun-14 00:25N 35°29' E 139°42'0 0.0
2018-Jun-13 23:58N 35°29' E 139°42'0 0.0
2018-Jun-13 23:22N 35°29' E 139°42'0 0.0
2018-Jun-13 22:58N 35°29' E 139°42'0 0.0
2018-Jun-13 22:31N 35°29' E 139°42'0 0.0
2018-Jun-13 21:52N 35°29' E 139°42'0 0.0
2018-Jun-13 21:31N 35°29' E 139°42'0 0.0
2018-Jun-13 20:57N 35°29' E 139°42'0 0.0
2018-Jun-13 20:27N 35°29' E 139°42'0 0.0
2018-Jun-13 19:54N 35°29' E 139°42'0 0.0
2018-Jun-13 18:33N 35°29' E 139°42'0 0.0
2018-Jun-13 18:18N 35°29' E 139°42'0 0.0
2018-Jun-13 17:57N 35°29' E 139°42'0 0.0
2018-Jun-13 17:30N 35°29' E 139°42'0 0.0
2018-Jun-13 17:00N 35°29' E 139°42'0 0.0
2018-Jun-13 16:24N 35°29' E 139°42'0 0.0
2018-Jun-13 16:00N 35°29' E 139°42'0 0.0
2018-Jun-13 15:03N 35°29' E 139°42'0 0.0
2018-Jun-13 14:54N 35°29' E 139°42'0 0.0
2018-Jun-13 14:27N 35°29' E 139°42'0 0.0
2018-Jun-13 13:45N 35°29' E 139°42'0 0.0
2018-Jun-13 12:57N 35°29' E 139°42'0 0.0
2018-Jun-13 12:30N 35°29' E 139°42'0 0.0
2018-Jun-13 11:57N 35°29' E 139°42'0 0.0
2018-Jun-13 11:30N 35°29' E 139°42'0 0.0
2018-Jun-13 10:48N 35°29' E 139°42'0 0.0
2018-Jun-13 10:30N 35°29' E 139°42'0 0.0
2018-Jun-13 10:00N 35°29' E 139°42'0 0.0
2018-Jun-13 09:30N 35°29' E 139°42'0 0.0
2018-Jun-13 08:54N 35°29' E 139°42'0 0.0
2018-Jun-13 08:30N 35°29' E 139°42'0 0.0
2018-Jun-13 07:57N 35°29' E 139°42'0 0.0
2018-Jun-13 07:18N 35°29' E 139°42'0 0.0
2018-Jun-13 07:00N 35°29' E 139°42'0 0.0
2018-Jun-13 06:21N 35°29' E 139°42'0 0.0
2018-Jun-13 06:00N 35°29' E 139°42'0 0.0
2018-Jun-13 05:24N 35°29' E 139°42'0 0.0
2018-Jun-13 04:54N 35°29' E 139°42'0 0.0
2018-Jun-13 04:30N 35°29' E 139°42'0 0.0
2018-Jun-13 03:51N 35°29' E 139°42'0 0.0
2018-Jun-13 03:30N 35°29' E 139°42'0 0.0
2018-Jun-13 02:24N 35°29' E 139°42'0 0.0
2018-Jun-13 01:48N 35°29' E 139°42'0 0.0
2018-Jun-13 01:27N 35°29' E 139°42'0 0.0
2018-Jun-13 00:54N 35°29' E 139°42'0 0.0
2018-Jun-13 00:24N 35°29' E 139°42'0 0.0
2018-Jun-12 23:21N 35°29' E 139°42'0 0.0
2018-Jun-12 23:00N 35°29' E 139°42'0 0.0
2018-Jun-12 22:24N 35°29' E 139°42'0 0.0
2018-Jun-12 22:00N 35°29' E 139°42'0 0.0
2018-Jun-12 21:03N 35°29' E 139°42'0 0.0
2018-Jun-12 20:57N 35°29' E 139°42'0 0.0
2018-Jun-12 20:27N 35°29' E 139°42'0 0.0
2018-Jun-12 19:57N 35°29' E 139°42'0 0.0
2018-Jun-12 19:21N 35°29' E 139°42'0 0.0
2018-Jun-12 18:57N 35°29' E 139°42'0 0.0
2018-Jun-12 18:09N 35°29' E 139°42'0 0.0
2018-Jun-12 17:51N 35°29' E 139°42'0 0.0
2018-Jun-12 17:27N 35°29' E 139°42'0 0.0
2018-Jun-12 17:00N 35°29' E 139°42'0 0.0
2018-Jun-12 16:30N 35°29' E 139°42'0 0.0
2018-Jun-12 16:00N 35°29' E 139°42'0 0.0
2018-Jun-12 15:30N 35°29' E 139°42'0 0.0
2018-Jun-12 14:51N 35°29' E 139°42'0 0.0
2018-Jun-12 14:30N 35°29' E 139°42'0 0.0
2018-Jun-12 14:00N 35°29' E 139°42'0 0.0
2018-Jun-12 13:24N 35°29' E 139°42'0 0.0
2018-Jun-12 13:00N 35°29' E 139°42'0 0.0
2018-Jun-12 12:30N 35°29' E 139°42'0 0.0
2018-Jun-12 11:57N 35°29' E 139°42'0 0.0
2018-Jun-12 11:30N 35°29' E 139°42'0 0.0
2018-Jun-12 10:59N 35°29' E 139°42'0 0.0
2018-Jun-12 10:26N 35°29' E 139°42'0 0.0
2018-Jun-12 09:53N 35°29' E 139°42'0 0.0
2018-Jun-12 09:20N 35°29' E 139°42'0 0.0
2018-Jun-12 08:56N 35°29' E 139°42'0 0.0
2018-Jun-12 08:08N 35°29' E 139°42'0 0.0
2018-Jun-12 07:50N 35°29' E 139°42'0 0.0
2018-Jun-12 07:29N 35°29' E 139°42'0 0.0
2018-Jun-12 06:59N 35°29' E 139°42'0 0.0
2018-Jun-12 06:29N 35°29' E 139°42'0 0.0
2018-Jun-12 05:59N 35°29' E 139°42'0 0.0
2018-Jun-12 05:26N 35°29' E 139°42'0 0.0
2018-Jun-12 04:59N 35°29' E 139°42'0 0.0
2018-Jun-12 04:20N 35°29' E 139°42'0 0.0
2018-Jun-12 03:59N 35°29' E 139°42'0 0.0
2018-Jun-12 03:11N 35°29' E 139°42'0 0.0
2018-Jun-12 02:59N 35°29' E 139°42'0 0.0
2018-Jun-12 02:20N 35°29' E 139°42'0 0.0
2018-Jun-12 01:56N 35°29' E 139°42'0 0.0
2018-Jun-12 01:26N 35°29' E 139°42'0 0.0
2018-Jun-12 00:56N 35°29' E 139°42'0 0.0
2018-Jun-12 00:29N 35°29' E 139°42'0 0.0
2018-Jun-11 23:50N 35°29' E 139°42'0 0.0
2018-Jun-11 23:29N 35°29' E 139°42'0 0.0
2018-Jun-11 22:38N 35°29' E 139°42'0 0.0
2018-Jun-11 22:26N 35°29' E 139°42'0 0.0
2018-Jun-11 21:35N 35°29' E 139°42'0 0.0
2018-Jun-11 21:17N 35°29' E 139°42'  
Track history (hours):
 
Tides and Currents Weather Stations Pressure Air Temp Water Temp Dewpoint Dewpoint Depression Visibility Wind Speed Wind Dir Waves Ship Positions

Hakuseimaru No.11

Last reported at 2018-Jun-21 19:29 UTC. Time now 2018-Jun-21 19:56 UTC.
Position N 35°23' E 139°40'.

Length 62 m; draft 3.5 m.

Type: Tanker. MMSI: 431501815.

Date/timePositionNaut miles runAvg speedWind from/ knotsBaromVisibWave heightAir tempDewpointWater temp
2018-Jun-21 19:29N 35°23' E 139°40'0 0.1
2018-Jun-21 18:56N 35°23' E 139°40'0 0.0
2018-Jun-21 18:29N 35°23' E 139°40'0 0.0
2018-Jun-21 17:59N 35°23' E 139°40'0 0.0
2018-Jun-21 17:29N 35°23' E 139°40'0 0.0
2018-Jun-21 16:59N 35°23' E 139°40'0 0.0
2018-Jun-21 16:17N 35°23' E 139°40'0 0.0
2018-Jun-21 15:59N 35°23' E 139°40'0 0.0
2018-Jun-21 15:29N 35°23' E 139°40'0 0.0
2018-Jun-21 14:59N 35°23' E 139°40'0 0.0
2018-Jun-21 14:26N 35°23' E 139°40'0 0.0
2018-Jun-21 13:59N 35°23' E 139°40'0 0.0
2018-Jun-21 13:26N 35°23' E 139°40'0 0.1
2018-Jun-21 12:53N 35°23' E 139°40'0 0.1
2018-Jun-21 12:29N 35°23' E 139°40'0 0.0
2018-Jun-21 11:56N 35°23' E 139°40'2 4.9
2018-Jun-21 11:30N 35°25' E 139°39'0 0.3
2018-Jun-21 11:00N 35°25' E 139°39'0 0.0
2018-Jun-21 10:25N 35°25' E 139°39'0 0.0
2018-Jun-21 09:52N 35°25' E 139°39'0 0.0
2018-Jun-21 09:28N 35°25' E 139°39'0 0.0
2018-Jun-21 07:28N 35°25' E 139°39'3 5.5
2018-Jun-21 07:00N 35°24' E 139°42'5 9.2
2018-Jun-21 06:30N 35°29' E 139°42'4 6.8
2018-Jun-21 05:59N 35°31' E 139°45'0 0.0
2018-Jun-21 03:56N 35°31' E 139°45'3 7.0
2018-Jun-21 03:30N 35°29' E 139°42'4 8.8
2018-Jun-21 03:00N 35°25' E 139°42'3 5.2
2018-Jun-21 02:30N 35°25' E 139°39'0 0.0
2018-Jun-21 02:00N 35°25' E 139°39'0 0.0
2018-Jun-21 01:24N 35°25' E 139°39'0 0.0
2018-Jun-21 00:48N 35°25' E 139°39'0 0.0
2018-Jun-21 00:18N 35°25' E 139°39'0 0.0
2018-Jun-20 23:54N 35°25' E 139°39'0 0.0
2018-Jun-20 23:13N 35°25' E 139°39'0 0.8
2018-Jun-20 23:00N 35°25' E 139°39'2 4.1
2018-Jun-20 22:30N 35°23' E 139°40'0 0.0
2018-Jun-20 21:59N 35°23' E 139°40'0 0.0
2018-Jun-20 21:29N 35°23' E 139°40'0 0.0
2018-Jun-20 20:53N 35°23' E 139°40'0 0.0
2018-Jun-20 20:23N 35°23' E 139°40'0 0.0
2018-Jun-20 19:47N 35°23' E 139°40'0 0.0
2018-Jun-20 19:29N 35°23' E 139°40'0 0.0
2018-Jun-20 18:41N 35°23' E 139°40'0 0.0
2018-Jun-20 18:26N 35°23' E 139°40'0 0.0
2018-Jun-20 17:59N 35°23' E 139°40'0 0.0
2018-Jun-20 17:23N 35°23' E 139°40'0 0.0
2018-Jun-20 16:59N 35°23' E 139°40'0 0.0
2018-Jun-20 16:20N 35°23' E 139°40'0 0.1
2018-Jun-20 15:56N 35°23' E 139°40'0 0.0
2018-Jun-20 15:29N 35°23' E 139°40'0 0.0
2018-Jun-20 14:59N 35°23' E 139°40'0 0.0
2018-Jun-20 14:29N 35°23' E 139°40'0 0.0
2018-Jun-20 13:59N 35°23' E 139°40'0 0.0
2018-Jun-20 13:29N 35°23' E 139°40'0 0.0
2018-Jun-20 12:59N 35°23' E 139°40'0 0.0
2018-Jun-20 12:29N 35°23' E 139°40'0 0.0
2018-Jun-20 11:50N 35°23' E 139°40'0 0.1
2018-Jun-20 11:29N 35°23' E 139°40'0 0.1
2018-Jun-20 10:56N 35°23' E 139°40'0 0.0
2018-Jun-20 10:26N 35°23' E 139°40'0 0.0
2018-Jun-20 09:56N 35°23' E 139°40'0 0.0
2018-Jun-20 09:25N 35°23' E 139°40'0 0.1
2018-Jun-20 08:58N 35°23' E 139°40'0 0.0
2018-Jun-20 08:13N 35°23' E 139°40'0 0.0
2018-Jun-20 07:58N 35°23' E 139°40'0 0.0
2018-Jun-20 07:25N 35°23' E 139°40'0 0.0
2018-Jun-20 06:58N 35°23' E 139°40'0 0.1
2018-Jun-20 06:22N 35°23' E 139°40'0 0.0
2018-Jun-20 05:58N 35°23' E 139°40'0 0.0
2018-Jun-20 05:28N 35°23' E 139°40'0 0.1
2018-Jun-20 04:58N 35°23' E 139°40'0 0.1
2018-Jun-20 04:28N 35°23' E 139°40'0 0.0
2018-Jun-20 03:58N 35°23' E 139°40'0 0.0
2018-Jun-20 03:25N 35°23' E 139°40'0 0.0
2018-Jun-20 02:58N 35°23' E 139°40'0 0.0
2018-Jun-20 02:25N 35°23' E 139°40'0 0.1
2018-Jun-20 02:00N 35°23' E 139°40'4 8.8
2018-Jun-20 01:30N 35°27' E 139°43'4 7.2
2018-Jun-20 01:00N 35°30' E 139°45'1 0.4
2018-Jun-19 22:36N 35°31' E 139°45'0 1.8
2018-Jun-19 22:31N 35°31' E 139°45'3 5.0
2018-Jun-19 22:00N 35°29' E 139°43'4 8.0
2018-Jun-19 21:30N 35°25' E 139°43'3 6.1
2018-Jun-19 21:00N 35°23' E 139°40'0 0.0
2018-Jun-19 20:29N 35°23' E 139°40'0 0.1
2018-Jun-19 19:50N 35°23' E 139°40'0 0.0
2018-Jun-19 19:29N 35°23' E 139°40'0 0.0
2018-Jun-19 18:38N 35°23' E 139°40'0 0.1
2018-Jun-19 18:29N 35°23' E 139°40'0 0.1
2018-Jun-19 17:56N 35°23' E 139°40'0 0.0
2018-Jun-19 17:29N 35°23' E 139°40'0 0.0
2018-Jun-19 16:53N 35°23' E 139°40'0 0.0
2018-Jun-19 16:20N 35°23' E 139°40'0 0.0
2018-Jun-19 15:59N 35°23' E 139°40'0 0.0
2018-Jun-19 15:29N 35°23' E 139°40'0 0.1
2018-Jun-19 14:59N 35°23' E 139°40'0 0.1
2018-Jun-19 13:59N 35°23' E 139°40'0 0.0
2018-Jun-19 12:47N 35°23' E 139°40'0 0.2
2018-Jun-19 12:29N 35°23' E 139°40'0 0.1
2018-Jun-19 11:59N 35°23' E 139°40'0 0.0
2018-Jun-19 10:44N 35°23' E 139°40'0 0.0
2018-Jun-19 10:26N 35°23' E 139°40'0 0.1
2018-Jun-19 10:00N 35°23' E 139°40'2 3.7
2018-Jun-19 09:26N 35°25' E 139°39'0 0.0
2018-Jun-19 08:43N 35°25' E 139°39'0 0.0
2018-Jun-19 08:07N 35°25' E 139°39'0 0.0
2018-Jun-19 07:49N 35°25' E 139°39'0 0.0
2018-Jun-19 07:13N 35°25' E 139°39'0 0.0
2018-Jun-19 06:43N 35°25' E 139°39'0 0.0
2018-Jun-19 06:19N 35°25' E 139°39'0 0.0
2018-Jun-19 05:40N 35°25' E 139°39'0 2.9
2018-Jun-19 05:30N 35°24' E 139°39'4 7.2
2018-Jun-19 05:00N 35°26' E 139°43'4 7.7
2018-Jun-19 04:30N 35°30' E 139°44'2 0.4
2018-Jun-18 23:41N 35°31' E 139°46'0 2.8
2018-Jun-18 23:30N 35°31' E 139°46'3 6.0
2018-Jun-18 23:00N 35°29' E 139°43'4 7.4
2018-Jun-18 22:30N 35°26' E 139°43'3 6.6
2018-Jun-18 22:00N 35°23' E 139°40'0 0.0
2018-Jun-18 21:30N 35°23' E 139°40'0 0.0
2018-Jun-18 20:54N 35°23' E 139°40'0 0.0
2018-Jun-18 20:24N 35°23' E 139°40'0 0.0
2018-Jun-18 20:00N 35°23' E 139°40'0 0.0
2018-Jun-18 19:21N 35°23' E 139°40'0 0.0
2018-Jun-18 19:00N 35°23' E 139°40'0 0.0
2018-Jun-18 18:30N 35°23' E 139°40'0 0.0
2018-Jun-18 17:57N 35°23' E 139°40'0 0.0
2018-Jun-18 17:27N 35°23' E 139°40'0 0.0
2018-Jun-18 17:00N 35°23' E 139°40'0 0.0
2018-Jun-18 16:30N 35°23' E 139°40'0 0.0
2018-Jun-18 15:51N 35°23' E 139°40'0 0.0
2018-Jun-18 15:30N 35°23' E 139°40'0 0.0
2018-Jun-18 15:00N 35°23' E 139°40'0 0.0
2018-Jun-18 14:27N 35°23' E 139°40'0 0.0
2018-Jun-18 13:51N 35°23' E 139°40'0 0.0
2018-Jun-18 13:30N 35°23' E 139°40'0 0.0
2018-Jun-18 13:00N 35°23' E 139°40'0 0.0
2018-Jun-18 12:18N 35°23' E 139°40'0 0.0
2018-Jun-18 12:00N 35°23' E 139°40'0 0.0
2018-Jun-18 11:24N 35°23' E 139°40'0 0.0
2018-Jun-18 11:00N 35°23' E 139°40'0 0.0
2018-Jun-18 10:15N 35°23' E 139°40'0 0.0
2018-Jun-18 10:00N 35°23' E 139°40'0 0.0
2018-Jun-18 09:24N 35°23' E 139°40'0 0.0
2018-Jun-18 09:00N 35°23' E 139°40'0 0.1
2018-Jun-18 08:30N 35°23' E 139°40'0 0.0
2018-Jun-18 07:51N 35°23' E 139°40'0 0.1
2018-Jun-18 07:27N 35°23' E 139°40'2 4.5
2018-Jun-18 07:00N 35°24' E 139°39'0 0.5
2018-Jun-18 06:30N 35°25' E 139°39'0 0.0
2018-Jun-18 05:57N 35°25' E 139°39'0 0.0
2018-Jun-18 05:12N 35°25' E 139°39'0 0.0
2018-Jun-18 04:57N 35°25' E 139°39'0 0.0
2018-Jun-18 04:27N 35°25' E 139°39'0 0.0
2018-Jun-18 03:57N 35°25' E 139°39'1 2.4
2018-Jun-18 03:30N 35°24' E 139°40'1 2.3
2018-Jun-18 02:58N 35°23' E 139°40'0 0.0
2018-Jun-18 02:25N 35°23' E 139°40'1 3.1
2018-Jun-18 02:01N 35°24' E 139°41'5 9.5
2018-Jun-18 01:30N 35°28' E 139°42'4 7.5
2018-Jun-18 01:00N 35°31' E 139°45'0 0.0
2018-Jun-17 22:33N 35°31' E 139°45'0 1.5
2018-Jun-17 22:31N 35°31' E 139°45'3 6.2
2018-Jun-17 22:01N 35°29' E 139°42'4 7.7
2018-Jun-17 21:30N 35°25' E 139°43'3 6.8
2018-Jun-17 21:00N 35°23' E 139°40'0 0.0
2018-Jun-17 20:28N 35°23' E 139°40'0 0.0
2018-Jun-17 19:55N 35°23' E 139°40'0 0.0
2018-Jun-17 19:31N 35°23' E 139°40'0 0.0
2018-Jun-17 18:45N 35°23' E 139°40'0 0.2
2018-Jun-17 18:30N 35°23' E 139°40'0 0.1
2018-Jun-17 18:00N 35°23' E 139°40'0 0.0
2018-Jun-17 17:30N 35°23' E 139°40'0 0.0
2018-Jun-17 17:00N 35°23' E 139°40'0 0.0
2018-Jun-17 16:18N 35°23' E 139°40'0 0.0
2018-Jun-17 16:00N 35°23' E 139°40'0 0.0
2018-Jun-17 15:18N 35°23' E 139°40'0 0.0
2018-Jun-17 15:00N 35°23' E 139°40'0 0.0
2018-Jun-17 14:30N 35°23' E 139°40'0 0.0
2018-Jun-17 14:00N 35°23' E 139°40'0 0.0
2018-Jun-17 13:30N 35°23' E 139°40'0 0.0
2018-Jun-17 12:51N 35°23' E 139°40'0 0.0
2018-Jun-17 12:30N 35°23' E 139°40'0 0.0
2018-Jun-17 11:57N 35°23' E 139°40'2 5.0
2018-Jun-17 11:31N 35°25' E 139°39'0 0.1
2018-Jun-17 11:00N 35°25' E 139°39'0 0.0
2018-Jun-17 10:29N 35°25' E 139°39'0 0.0
2018-Jun-17 09:41N 35°25' E 139°39'0 0.0
2018-Jun-17 09:26N 35°25' E 139°39'0 0.0
2018-Jun-17 08:56N 35°25' E 139°39'0 0.0
2018-Jun-17 08:20N 35°25' E 139°39'0 0.0
2018-Jun-17 07:56N 35°25' E 139°39'0 0.0
2018-Jun-17 07:26N 35°25' E 139°39'0 0.0
2018-Jun-17 06:56N 35°25' E 139°39'0 0.0
2018-Jun-17 06:26N 35°25' E 139°39'0 0.0
2018-Jun-17 05:44N 35°25' E 139°39'0 0.0
2018-Jun-17 05:14N 35°25' E 139°39'0 0.0
2018-Jun-17 04:56N 35°25' E 139°39'0 0.6
2018-Jun-17 04:30N 35°25' E 139°39'0 0.2
2018-Jun-17 04:01N 35°25' E 139°39'2 4.3
2018-Jun-17 03:30N 35°23' E 139°40'0 0.0
2018-Jun-17 02:58N 35°23' E 139°40'0 0.0
2018-Jun-17 02:28N 35°23' E 139°40'0 1.0
2018-Jun-17 02:00N 35°23' E 139°41'5 9.6
2018-Jun-17 01:30N 35°28' E 139°42'4 7.7
2018-Jun-17 01:00N 35°31' E 139°45'0 0.0
2018-Jun-16 22:35N 35°31' E 139°45'0 1.4
2018-Jun-16 22:30N 35°31' E 139°45'2 4.7
2018-Jun-16 22:00N 35°29' E 139°43'4 7.2
2018-Jun-16 21:30N 35°26' E 139°43'4 6.9
2018-Jun-16 20:59N 35°23' E 139°40'0 0.1
2018-Jun-16 20:30N 35°23' E 139°40'0 0.0
2018-Jun-16 19:54N 35°23' E 139°40'0 0.0
2018-Jun-16 19:27N 35°23' E 139°40'0 0.0
2018-Jun-16 18:51N 35°23' E 139°40'0 0.0
2018-Jun-16 18:30N 35°23' E 139°40'0 0.1
2018-Jun-16 17:51N 35°23' E 139°40'0 0.0
2018-Jun-16 17:27N 35°23' E 139°40'0 0.1
2018-Jun-16 17:00N 35°23' E 139°40'0 0.0
2018-Jun-16 16:24N 35°23' E 139°40'0 0.0
2018-Jun-16 16:00N 35°23' E 139°40'0 0.0
2018-Jun-16 15:30N 35°23' E 139°40'0 0.0
2018-Jun-16 15:00N 35°23' E 139°40'0 0.0
2018-Jun-16 14:30N 35°23' E 139°40'0 0.0
2018-Jun-16 14:00N 35°23' E 139°40'0 0.0
2018-Jun-16 13:30N 35°23' E 139°40'0 0.0
2018-Jun-16 13:00N 35°23' E 139°40'0 0.0
2018-Jun-16 12:30N 35°23' E 139°40'0 0.1
2018-Jun-16 11:54N 35°23' E 139°40'0 0.0
2018-Jun-16 11:30N 35°23' E 139°40'0 0.0
2018-Jun-16 10:54N 35°23' E 139°40'0 0.0
2018-Jun-16 10:27N 35°23' E 139°40'0 0.0
2018-Jun-16 10:00N 35°23' E 139°40'0 0.0
2018-Jun-16 09:30N 35°23' E 139°40'0 0.0
2018-Jun-16 08:57N 35°23' E 139°40'0 0.0
2018-Jun-16 08:24N 35°23' E 139°40'0 0.1
2018-Jun-16 08:00N 35°23' E 139°40'0 0.1
2018-Jun-16 07:24N 35°23' E 139°40'1 3.1
2018-Jun-16 07:00N 35°24' E 139°39'1 2.0
2018-Jun-16 06:30N 35°25' E 139°39'0 0.0
2018-Jun-16 05:56N 35°25' E 139°39'0 0.0
2018-Jun-16 05:29N 35°25' E 139°39'0 0.0
2018-Jun-16 04:59N 35°25' E 139°39'0 0.0
2018-Jun-16 04:29N 35°25' E 139°39'0 0.0
2018-Jun-16 03:47N 35°25' E 139°39'0 0.0
2018-Jun-16 03:29N 35°25' E 139°39'0 0.0
2018-Jun-16 02:47N 35°25' E 139°39'0 0.0
2018-Jun-16 02:30N 35°25' E 139°39'3 5.2
2018-Jun-16 02:00N 35°24' E 139°42'5 9.3
2018-Jun-16 01:31N 35°29' E 139°42'3 1.0
2018-Jun-15 22:34N 35°31' E 139°45'0 1.3
2018-Jun-15 22:30N 35°31' E 139°45'3 6.3
2018-Jun-15 22:00N 35°29' E 139°42'4 7.6
2018-Jun-15 21:30N 35°25' E 139°43'3 6.4
2018-Jun-15 21:01N 35°23' E 139°40'0 0.1
2018-Jun-15 20:29N 35°23' E 139°40'0 0.1
2018-Jun-15 19:41N 35°23' E 139°40'0 0.0
2018-Jun-15 19:29N 35°23' E 139°40'0 0.0
2018-Jun-15 18:59N 35°23' E 139°40'0 0.0
2018-Jun-15 18:29N 35°23' E 139°40'0 0.0
2018-Jun-15 17:32N 35°23' E 139°40'0 0.0
2018-Jun-15 17:26N 35°23' E 139°40'0 0.0
2018-Jun-15 16:59N 35°23' E 139°40'0 0.0
2018-Jun-15 16:20N 35°23' E 139°40'0 0.0
2018-Jun-15 15:59N 35°23' E 139°40'0 0.0
2018-Jun-15 15:29N 35°23' E 139°40'0 0.0
2018-Jun-15 14:59N 35°23' E 139°40'0 0.0
2018-Jun-15 14:29N 35°23' E 139°40'0 0.0
2018-Jun-15 13:53N 35°23' E 139°40'0 0.0
2018-Jun-15 13:26N 35°23' E 139°40'0 0.0
2018-Jun-15 12:50N 35°23' E 139°40'0 0.0
2018-Jun-15 12:29N 35°23' E 139°40'2 4.7
2018-Jun-15 12:00N 35°25' E 139°39'0 0.0
2018-Jun-15 11:30N 35°25' E 139°39'0 0.0
2018-Jun-15 10:59N 35°25' E 139°39'0 0.0
2018-Jun-15 10:11N 35°25' E 139°39'0 0.0
2018-Jun-15 09:59N 35°25' E 139°39'0 0.0
2018-Jun-15 09:23N 35°25' E 139°39'0 0.0
2018-Jun-15 08:59N 35°25' E 139°39'0 0.0
2018-Jun-15 08:29N 35°25' E 139°39'0 0.0
2018-Jun-15 07:47N 35°25' E 139°39'0 0.1
2018-Jun-15 07:30N 35°25' E 139°39'4 8.0
2018-Jun-15 07:00N 35°21' E 139°41'0 0.4
2018-Jun-15 06:24N 35°21' E 139°41'0 0.0
2018-Jun-15 05:57N 35°21' E 139°41'0 0.0
2018-Jun-15 05:24N 35°21' E 139°41'0 0.0
2018-Jun-15 04:57N 35°21' E 139°41'0 0.0
2018-Jun-15 04:27N 35°21' E 139°41'0 0.0
2018-Jun-15 04:00N 35°21' E 139°41'0 0.0
2018-Jun-15 03:21N 35°21' E 139°41'0 0.0
2018-Jun-15 02:54N 35°21' E 139°41'2 4.9
2018-Jun-15 02:30N 35°23' E 139°41'510.3
2018-Jun-15 02:00N 35°28' E 139°42'4 7.7
2018-Jun-15 01:30N 35°31' E 139°45'0 0.1
2018-Jun-14 22:49N 35°31' E 139°45'1 3.4
2018-Jun-14 22:30N 35°30' E 139°45'3 5.2
2018-Jun-14 22:00N 35°29' E 139°42'4 7.5
2018-Jun-14 21:30N 35°25' E 139°42'3 5.5
2018-Jun-14 21:00N 35°23' E 139°40'0 0.0
2018-Jun-14 20:21N 35°23' E 139°40'0 0.0
2018-Jun-14 20:00N 35°23' E 139°40'0 0.0
2018-Jun-14 19:21N 35°23' E 139°40'0 0.0
2018-Jun-14 18:57N 35°23' E 139°40'0 0.1
2018-Jun-14 18:30N 35°23' E 139°40'0 0.1
2018-Jun-14 18:00N 35°23' E 139°40'0 0.0
2018-Jun-14 17:27N 35°23' E 139°40'0 0.0
2018-Jun-14 16:56N 35°23' E 139°40'0 0.0
2018-Jun-14 16:29N 35°23' E 139°40'0 0.0
2018-Jun-14 15:47N 35°23' E 139°40'0 0.2
2018-Jun-14 15:29N 35°23' E 139°40'0 0.0
2018-Jun-14 14:59N 35°23' E 139°40'0 0.0
2018-Jun-14 14:29N 35°23' E 139°40'0 0.0
2018-Jun-14 13:59N 35°23' E 139°40'0 0.0
2018-Jun-14 13:29N 35°23' E 139°40'0 0.0
2018-Jun-14 12:56N 35°23' E 139°40'0 0.0
2018-Jun-14 12:29N 35°23' E 139°40'0 0.0
2018-Jun-14 11:59N 35°23' E 139°40'0 0.1
2018-Jun-14 11:23N 35°23' E 139°40'0 0.0
2018-Jun-14 10:59N 35°23' E 139°40'0 0.0
2018-Jun-14 10:29N 35°23' E 139°40'0 0.0
2018-Jun-14 09:59N 35°23' E 139°40'1 2.1
2018-Jun-14 09:30N 35°24' E 139°40'1 2.4
2018-Jun-14 09:00N 35°25' E 139°39'0 0.0
2018-Jun-14 08:26N 35°25' E 139°39'0 0.0
2018-Jun-14 07:50N 35°25' E 139°39'0 0.0
2018-Jun-14 07:29N 35°25' E 139°39'0 0.0
2018-Jun-14 06:38N 35°25' E 139°39'0 0.0
2018-Jun-14 06:26N 35°25' E 139°39'0 0.0
2018-Jun-14 05:44N 35°25' E 139°39'0 0.0
2018-Jun-14 05:26N 35°25' E 139°39'0 0.0
2018-Jun-14 04:56N 35°25' E 139°39'0 0.0
2018-Jun-14 04:26N 35°25' E 139°39'0 0.5
2018-Jun-14 04:00N 35°25' E 139°39'3 6.2
2018-Jun-14 03:30N 35°24' E 139°42'1 2.5
2018-Jun-14 03:00N 35°24' E 139°44'0 0.0
2018-Jun-14 02:30N 35°24' E 139°44'2 5.0
2018-Jun-14 02:00N 35°26' E 139°43'3 6.1
2018-Jun-14 01:28N 35°29' E 139°42'0 0.0
2018-Jun-14 00:58N 35°29' E 139°42'0 0.0
2018-Jun-14 00:25N 35°29' E 139°42'0 0.0
2018-Jun-13 23:58N 35°29' E 139°42'0 0.0
2018-Jun-13 23:22N 35°29' E 139°42'0 0.0
2018-Jun-13 22:58N 35°29' E 139°42'0 0.0
2018-Jun-13 22:31N 35°29' E 139°42'0 0.0
2018-Jun-13 21:52N 35°29' E 139°42'0 0.0
2018-Jun-13 21:31N 35°29' E 139°42'0 0.0
2018-Jun-13 20:57N 35°29' E 139°42'0 0.0
2018-Jun-13 20:27N 35°29' E 139°42'0 0.0
2018-Jun-13 19:54N 35°29' E 139°42'0 0.0
2018-Jun-13 18:33N 35°29' E 139°42'0 0.0
2018-Jun-13 18:18N 35°29' E 139°42'0 0.0
2018-Jun-13 17:57N 35°29' E 139°42'0 0.0
2018-Jun-13 17:30N 35°29' E 139°42'0 0.0
2018-Jun-13 17:00N 35°29' E 139°42'0 0.0
2018-Jun-13 16:24N 35°29' E 139°42'0 0.0
2018-Jun-13 16:00N 35°29' E 139°42'0 0.0
2018-Jun-13 15:03N 35°29' E 139°42'0 0.0
2018-Jun-13 14:54N 35°29' E 139°42'0 0.0
2018-Jun-13 14:27N 35°29' E 139°42'0 0.0
2018-Jun-13 13:45N 35°29' E 139°42'0 0.0
2018-Jun-13 12:57N 35°29' E 139°42'0 0.0
2018-Jun-13 12:30N 35°29' E 139°42'0 0.0
2018-Jun-13 11:57N 35°29' E 139°42'0 0.0
2018-Jun-13 11:30N 35°29' E 139°42'0 0.0
2018-Jun-13 10:48N 35°29' E 139°42'0 0.0
2018-Jun-13 10:30N 35°29' E 139°42'0 0.0
2018-Jun-13 10:00N 35°29' E 139°42'0 0.0
2018-Jun-13 09:30N 35°29' E 139°42'0 0.0
2018-Jun-13 08:54N 35°29' E 139°42'0 0.0
2018-Jun-13 08:30N 35°29' E 139°42'0 0.0
2018-Jun-13 07:57N 35°29' E 139°42'0 0.0
2018-Jun-13 07:18N 35°29' E 139°42'0 0.0
2018-Jun-13 07:00N 35°29' E 139°42'0 0.0
2018-Jun-13 06:21N 35°29' E 139°42'0 0.0
2018-Jun-13 06:00N 35°29' E 139°42'0 0.0
2018-Jun-13 05:24N 35°29' E 139°42'0 0.0
2018-Jun-13 04:54N 35°29' E 139°42'0 0.0
2018-Jun-13 04:30N 35°29' E 139°42'0 0.0
2018-Jun-13 03:51N 35°29' E 139°42'0 0.0
2018-Jun-13 03:30N 35°29' E 139°42'0 0.0
2018-Jun-13 02:24N 35°29' E 139°42'0 0.0
2018-Jun-13 01:48N 35°29' E 139°42'0 0.0
2018-Jun-13 01:27N 35°29' E 139°42'0 0.0
2018-Jun-13 00:54N 35°29' E 139°42'0 0.0
2018-Jun-13 00:24N 35°29' E 139°42'0 0.0
2018-Jun-12 23:21N 35°29' E 139°42'0 0.0
2018-Jun-12 23:00N 35°29' E 139°42'0 0.0
2018-Jun-12 22:24N 35°29' E 139°42'0 0.0
2018-Jun-12 22:00N 35°29' E 139°42'0 0.0
2018-Jun-12 21:03N 35°29' E 139°42'0 0.0
2018-Jun-12 20:57N 35°29' E 139°42'0 0.0
2018-Jun-12 20:27N 35°29' E 139°42'0 0.0
2018-Jun-12 19:57N 35°29' E 139°42'0 0.0
2018-Jun-12 19:21N 35°29' E 139°42'0 0.0
2018-Jun-12 18:57N 35°29' E 139°42'0 0.0
2018-Jun-12 18:09N 35°29' E 139°42'0 0.0
2018-Jun-12 17:51N 35°29' E 139°42'0 0.0
2018-Jun-12 17:27N 35°29' E 139°42'0 0.0
2018-Jun-12 17:00N 35°29' E 139°42'0 0.0
2018-Jun-12 16:30N 35°29' E 139°42'0 0.0
2018-Jun-12 16:00N 35°29' E 139°42'0 0.0
2018-Jun-12 15:30N 35°29' E 139°42'0 0.0
2018-Jun-12 14:51N 35°29' E 139°42'0 0.0
2018-Jun-12 14:30N 35°29' E 139°42'0 0.0
2018-Jun-12 14:00N 35°29' E 139°42'0 0.0
2018-Jun-12 13:24N 35°29' E 139°42'0 0.0
2018-Jun-12 13:00N 35°29' E 139°42'0 0.0
2018-Jun-12 12:30N 35°29' E 139°42'0 0.0
2018-Jun-12 11:57N 35°29' E 139°42'0 0.0
2018-Jun-12 11:30N 35°29' E 139°42'0 0.0
2018-Jun-12 10:59N 35°29' E 139°42'0 0.0
2018-Jun-12 10:26N 35°29' E 139°42'0 0.0
2018-Jun-12 09:53N 35°29' E 139°42'0 0.0
2018-Jun-12 09:20N 35°29' E 139°42'0 0.0
2018-Jun-12 08:56N 35°29' E 139°42'0 0.0
2018-Jun-12 08:08N 35°29' E 139°42'0 0.0
2018-Jun-12 07:50N 35°29' E 139°42'0 0.0
2018-Jun-12 07:29N 35°29' E 139°42'0 0.0
2018-Jun-12 06:59N 35°29' E 139°42'0 0.0
2018-Jun-12 06:29N 35°29' E 139°42'0 0.0
2018-Jun-12 05:59N 35°29' E 139°42'0 0.0
2018-Jun-12 05:26N 35°29' E 139°42'0 0.0
2018-Jun-12 04:59N 35°29' E 139°42'0 0.0
2018-Jun-12 04:20N 35°29' E 139°42'0 0.0
2018-Jun-12 03:59N 35°29' E 139°42'0 0.0
2018-Jun-12 03:11N 35°29' E 139°42'0 0.0
2018-Jun-12 02:59N 35°29' E 139°42'0 0.0
2018-Jun-12 02:20N 35°29' E 139°42'0 0.0
2018-Jun-12 01:56N 35°29' E 139°42'0 0.0
2018-Jun-12 01:26N 35°29' E 139°42'0 0.0
2018-Jun-12 00:56N 35°29' E 139°42'0 0.0
2018-Jun-12 00:29N 35°29' E 139°42'0 0.0
2018-Jun-11 23:50N 35°29' E 139°42'0 0.0
2018-Jun-11 23:29N 35°29' E 139°42'0 0.0
2018-Jun-11 22:38N 35°29' E 139°42'0 0.0
2018-Jun-11 22:26N 35°29' E 139°42'0 0.0
2018-Jun-11 21:35N 35°29' E 139°42'0 0.0
2018-Jun-11 21:17N 35°29' E 139°42'  

Dump ship's entire track history